ESOE

Örebro Airport

Örebro, Sweden
METAR ESOE 221920Z 23006KT CAVOK 20/14 Q1009
Observed Flight Rules
Jul-22 @ 19:20 UTC (28 minutes ago) Visual Flight Rules
Wind Visibility Clouds
230° at 6 knots 10,000+ meters
  • Clear skies
Temperatures Readings
Current 20°C / 68°F
Dewpoint 14°C / 57°F
Humidity 69%
Altimeter 29.79" Hg
Pressure 1009 hPa
Elevation 57
METAR ESOE 221920Z 23006KT CAVOK 20/14 Q1009
Observed Flight Rules
Jul-22 @ 19:20 UTC
(28 minutes ago)
VFR
Wind Visibility
230° at 6 knots 10,000+ meters
Clouds
  • Clear skies
Temperature Dewpoint
20°C / 68°F 14°C / 57°F
Humidity Altimeter Pressure
69% 29.79" Hg 1009 hPa